Time;durP1;ratioP1;P1;durP2;ratioP2;P2;SDS_P1;SDS_P2;PMS_P1;PMS_P2;Temp;Humidity;BMP_temperature;BMP_pressure;BME280_temperature;BME280_humidity;BME280_pressure;Samples;Min_cycle;Max_cycle;Signal;HPM_P1;HPM_P2
2022/06/28 00:00:10;;;;;;;2.90;1.65;;;;;;;26.97;43.87;99605.81;4488706;31;34450;-84
2022/06/28 00:02:39;;;;;;;3.47;1.75;;;;;;;26.89;44.39;99608.25;4485154;31;34715;-85
2022/06/28 00:05:10;;;;;;;3.80;2.05;;;;;;;26.87;44.29;99610.22;4490997;31;33919;-86
2022/06/28 00:07:40;;;;;;;3.92;2.05;;;;;;;26.91;44.47;99616.97;4497357;31;33022;-84
2022/06/28 00:10:28;;;;;;;2.95;1.50;;;;;;;26.89;44.56;99623.41;4495956;31;33959;-84
2022/06/28 00:12:57;;;;;;;2.65;1.50;;;;;;;26.87;44.50;99623.53;4484534;31;34011;-85
2022/06/28 00:18:12;;;;;;;2.60;1.58;;;;;;;26.82;45.07;99623.06;4492634;31;33370;-84
2022/06/28 00:20:41;;;;;;;3.87;1.58;;;;;;;26.71;44.87;99615.13;4492478;31;35042;-84
2022/06/28 00:23:11;;;;;;;2.95;1.60;;;;;;;26.76;44.80;99608.44;4487545;31;33906;-85
2022/06/28 00:25:40;;;;;;;4.05;1.70;;;;;;;26.76;44.41;99608.44;4489078;31;35099;-85
2022/06/28 00:28:09;;;;;;;3.87;1.87;;;;;;;26.56;44.84;99611.87;4488067;31;33453;-85
2022/06/28 00:30:37;;;;;;;4.05;1.85;;;;;;;26.75;44.49;99605.91;4488351;31;33755;-84
2022/06/28 00:33:06;;;;;;;3.17;1.60;;;;;;;26.70;44.59;99603.63;4481614;31;33983;-84
2022/06/28 00:35:35;;;;;;;5.00;1.77;;;;;;;26.68;44.65;99602.91;4487483;31;33830;-84
2022/06/28 00:38:05;;;;;;;3.00;1.62;;;;;;;26.68;44.33;99607.38;4498204;31;34076;-84
2022/06/28 00:40:47;;;;;;;3.35;1.92;;;;;;;26.66;44.15;99611.97;4490300;31;32242;-84
2022/06/28 00:43:15;;;;;;;;;;;;;;;26.66;43.90;99607.50;4491787;31;33941;-85
2022/06/28 00:45:47;;;;;;;3.22;1.40;;;;;;;26.73;43.57;99613.19;4486615;31;34009;-84
2022/06/28 00:48:17;;;;;;;4.73;2.23;;;;;;;26.60;43.39;99618.63;4482194;31;33119;-84
2022/06/28 00:50:46;;;;;;;2.37;1.45;;;;;;;26.81;42.80;99613.37;4482242;31;35355;-84
2022/06/28 00:53:17;;;;;;;4.53;1.98;;;;;;;26.89;42.51;99615.41;4487156;31;33840;-84
2022/06/28 00:55:48;;;;;;;2.17;1.30;;;;;;;26.80;42.87;99617.88;4479117;31;34038;-85
2022/06/28 00:58:17;;;;;;;4.07;2.05;;;;;;;26.87;42.70;99615.56;4483172;31;33221;-85
2022/06/28 01:00:48;;;;;;;2.95;1.85;;;;;;;26.92;42.59;99620.50;4482527;31;31991;-86
2022/06/28 01:03:18;;;;;;;;;;;;;;;27.02;42.67;99624.94;4479937;31;34420;-85
2022/06/28 01:05:48;;;;;;;2.78;1.37;;;;;;;26.87;43.05;99620.87;4484413;31;34464;-85
2022/06/28 01:08:17;;;;;;;3.62;1.65;;;;;;;26.96;43.19;99628.09;4477946;32;33109;-85
2022/06/28 01:10:47;;;;;;;2.53;1.42;;;;;;;26.81;43.67;99638.19;4484549;31;33766;-85
2022/06/28 01:13:17;;;;;;;2.83;1.73;;;;;;;26.99;43.15;99635.84;4495595;31;34887;-85
2022/06/28 01:15:47;;;;;;;4.07;1.97;;;;;;;26.83;43.73;99627.41;4493704;31;33776;-85
2022/06/28 01:18:17;;;;;;;2.87;1.55;;;;;;;26.92;43.98;99628.50;4499341;31;34072;-85
2022/06/28 01:20:47;;;;;;;2.83;1.48;;;;;;;26.80;43.90;99635.66;4485421;31;33040;-86
2022/06/28 01:23:19;;;;;;;2.40;1.40;;;;;;;26.70;43.93;99624.91;4478267;32;33603;-85
2022/06/28 01:25:48;;;;;;;3.50;1.70;;;;;;;26.63;44.51;99628.19;4478240;32;33576;-85
2022/06/28 01:28:18;;;;;;;3.03;1.47;;;;;;;26.73;44.04;99629.97;4477258;31;33688;-86
2022/06/28 01:30:49;;;;;;;3.05;1.77;;;;;;;26.67;43.69;99640.28;4485566;31;33847;-85
2022/06/28 01:33:18;;;;;;;1.58;1.30;;;;;;;26.64;44.17;99625.41;4487153;31;33560;-86
2022/06/28 01:35:47;;;;;;;1.75;1.10;;;;;;;26.52;44.28;99632.53;4482911;31;33760;-84
2022/06/28 01:38:19;;;;;;;3.33;1.70;;;;;;;26.44;44.14;99626.16;4478385;31;33967;-84
2022/06/28 01:40:49;;;;;;;2.40;1.52;;;;;;;26.40;44.15;99620.22;4482313;31;33624;-85
2022/06/28 01:43:19;;;;;;;3.05;1.60;;;;;;;26.24;44.84;99606.44;4483641;31;34046;-85
2022/06/28 01:45:49;;;;;;;2.33;1.48;;;;;;;26.30;44.65;99612.13;4495834;31;33772;-85
2022/06/28 01:48:19;;;;;;;3.28;1.55;;;;;;;26.37;44.23;99607.16;4486621;31;32819;-85
2022/06/28 01:50:52;;;;;;;2.03;1.35;;;;;;;26.25;44.62;99611.66;4484156;31;33706;-84
2022/06/28 01:53:22;;;;;;;2.75;1.55;;;;;;;26.13;44.92;99610.81;4485475;31;33969;-84
2022/06/28 01:55:53;;;;;;;2.30;1.48;;;;;;;26.22;44.65;99622.53;4491205;31;33453;-85
2022/06/28 01:58:23;;;;;;;3.95;2.15;;;;;;;26.33;44.50;99630.50;4495001;31;32902;-85
2022/06/28 02:00:52;;;;;;;3.37;1.48;;;;;;;26.35;43.74;99636.53;4496055;31;33947;-84
2022/06/28 02:03:21;;;;;;;3.75;1.60;;;;;;;26.17;44.23;99643.34;4478337;31;33680;-84
2022/06/28 02:05:50;;;;;;;2.15;1.40;;;;;;;26.22;43.58;99646.47;4483117;31;32063;-84
2022/06/28 02:08:20;;;;;;;3.77;1.50;;;;;;;26.13;44.00;99641.88;4487066;31;34013;-84
2022/06/28 02:10:51;;;;;;;2.50;1.80;;;;;;;25.98;44.63;99640.44;4484565;31;33962;-85
2022/06/28 02:13:20;;;;;;;2.67;1.70;;;;;;;25.89;45.53;99644.63;4500228;31;33185;-86
2022/06/28 02:15:49;;;;;;;4.22;1.77;;;;;;;25.80;46.10;99646.16;4491381;31;32298;-85
2022/06/28 02:18:18;;;;;;;3.30;1.83;;;;;;;25.80;46.57;99640.84;4494230;31;34115;-85
2022/06/28 02:20:47;;;;;;;2.20;1.40;;;;;;;25.80;46.78;99645.31;4491514;31;33730;-84
2022/06/28 02:23:19;;;;;;;2.62;1.52;;;;;;;25.55;47.42;99634.75;4493167;31;33694;-85
2022/06/28 02:25:48;;;;;;;3.25;1.58;;;;;;;25.66;47.18;99628.63;4498035;31;33992;-84
2022/06/28 02:28:18;;;;;;;3.00;2.00;;;;;;;25.77;46.86;99627.78;4483286;31;33306;-84
2022/06/28 02:30:47;;;;;;;2.83;1.60;;;;;;;25.71;46.91;99620.31;4487147;31;33812;-84
2022/06/28 02:33:16;;;;;;;2.58;1.33;;;;;;;25.72;46.85;99628.16;4492179;31;34670;-84
2022/06/28 02:41:19;;;;;;;3.40;1.62;;;;;;;25.74;46.44;99646.66;4491410;31;33944;-85
2022/06/28 02:43:49;;;;;;;3.53;1.73;;;;;;;25.48;46.66;99644.16;4491782;31;33982;-84
2022/06/28 02:46:18;;;;;;;3.90;2.20;;;;;;;25.69;46.81;99654.97;4486192;31;32547;-84
2022/06/28 02:48:47;;;;;;;2.72;1.60;;;;;;;25.54;47.26;99648.19;4486682;31;34036;-85
2022/06/28 02:51:16;;;;;;;2.97;1.62;;;;;;;25.51;47.63;99649.22;4481811;31;34428;-84
2022/06/28 02:53:45;;;;;;;3.67;2.28;;;;;;;25.46;48.00;99647.91;4486278;31;34551;-85
2022/06/28 02:56:14;;;;;;;5.40;1.95;;;;;;;25.27;48.72;99649.31;4498200;31;34261;-84
2022/06/28 02:58:43;;;;;;;4.90;1.90;;;;;;;25.31;48.49;99644.59;4491240;31;34090;-85
2022/06/28 03:01:13;;;;;;;3.47;1.60;;;;;;;25.42;48.21;99635.81;4493079;31;33496;-85
2022/06/28 03:03:42;;;;;;;4.22;1.80;;;;;;;25.36;48.79;99636.28;4486999;31;33804;-84
2022/06/28 03:06:11;;;;;;;2.15;1.40;;;;;;;25.38;48.90;99640.50;4494640;31;34422;-84
2022/06/28 03:08:40;;;;;;;2.17;1.60;;;;;;;25.41;48.80;99631.47;4495998;31;33295;-84
2022/06/28 03:11:09;;;;;;;3.30;2.03;;;;;;;25.43;48.67;99632.19;4493978;31;33761;-84
2022/06/28 03:13:38;;;;;;;3.17;1.92;;;;;;;25.52;47.89;99635.00;4485651;31;34644;-85
2022/06/28 03:16:07;;;;;;;3.60;1.92;;;;;;;25.44;47.65;99634.75;4487763;31;33548;-85
2022/06/28 03:18:40;;;;;;;3.85;2.20;;;;;;;25.33;49.18;99632.88;4485128;31;34102;-85
2022/06/28 03:21:09;;;;;;;3.13;1.40;;;;;;;25.24;49.59;99638.88;4484621;31;33156;-84
2022/06/28 03:23:39;;;;;;;2.70;1.83;;;;;;;25.24;49.82;99643.34;4486871;31;33802;-84
2022/06/28 03:26:07;;;;;;;5.40;2.08;;;;;;;25.31;49.51;99658.72;4483664;31;33665;-84
2022/06/28 03:28:36;;;;;;;2.90;1.60;;;;;;;25.42;48.79;99659.69;4481065;31;33908;-84
2022/06/28 03:31:05;;;;;;;3.40;1.98;;;;;;;25.25;49.06;99674.25;4494004;31;33997;-84
2022/06/28 03:33:34;;;;;;;2.30;1.58;;;;;;;25.32;48.95;99683.44;4485331;31;34628;-84
2022/06/28 03:36:05;;;;;;;3.58;2.30;;;;;;;25.50;48.55;99700.66;4486284;31;34423;-84
2022/06/28 03:38:35;;;;;;;3.08;1.58;;;;;;;25.53;48.34;99713.72;4492943;31;33914;-84
2022/06/28 03:41:04;;;;;;;3.78;1.90;;;;;;;25.44;48.30;99726.84;4494358;31;34490;-85
2022/06/28 03:43:33;;;;;;;3.78;2.15;;;;;;;25.68;47.39;99732.97;4491030;31;34018;-85
2022/06/28 03:46:02;;;;;;;2.45;1.30;;;;;;;25.61;46.56;99728.22;4488768;31;33578;-84
2022/06/28 03:48:32;;;;;;;2.67;1.60;;;;;;;25.59;47.56;99741.66;4493893;31;34088;-85
2022/06/28 03:51:04;;;;;;;2.70;1.73;;;;;;;25.60;47.62;99750.47;4492868;31;34052;-85
2022/06/28 03:53:34;;;;;;;2.95;1.62;;;;;;;25.68;46.41;99759.53;4481918;31;33502;-86
2022/06/28 03:56:05;;;;;;;2.28;1.37;;;;;;;25.85;47.48;99765.41;4488906;31;33736;-85
2022/06/28 03:58:34;;;;;;;2.45;1.25;;;;;;;25.92;46.20;99767.50;4489636;31;33109;-85
2022/06/28 04:01:04;;;;;;;2.78;1.55;;;;;;;25.99;46.34;99767.03;4492881;31;34723;-85
2022/06/28 04:03:36;;;;;;;2.92;1.83;;;;;;;26.13;45.19;99761.53;4485975;31;34180;-84
2022/06/28 04:06:06;;;;;;;3.28;2.03;;;;;;;26.17;46.66;99755.00;4480218;31;33762;-85
2022/06/28 04:08:35;;;;;;;3.53;1.58;;;;;;;26.20;46.68;99760.09;4480892;31;32826;-84
2022/06/28 04:11:16;;;;;;;3.20;1.58;;;;;;;26.43;46.64;99755.63;4484327;31;33656;-84
2022/06/28 04:13:46;;;;;;;3.53;1.70;;;;;;;26.48;46.85;99764.13;4484646;31;33461;-84
2022/06/28 04:16:15;;;;;;;;;;;;;;;26.64;46.58;99773.56;4494758;31;33412;-85
2022/06/28 04:18:45;;;;;;;2.28;1.20;;;;;;;26.80;46.22;99780.22;4492126;31;33453;-86
2022/06/28 04:21:22;;;;;;;2.95;1.37;;;;;;;27.03;45.65;99788.19;4485661;31;33429;-85
2022/06/28 04:23:52;;;;;;;2.80;1.42;;;;;;;27.09;44.21;99784.19;4487443;31;34697;-84
2022/06/28 04:26:21;;;;;;;3.28;1.87;;;;;;;27.18;44.14;99781.63;4481545;31;33406;-86
2022/06/28 04:28:50;;;;;;;2.83;2.00;;;;;;;27.43;44.29;99785.84;4485915;31;33361;-86
2022/06/28 04:31:19;;;;;;;2.70;1.20;;;;;;;27.62;43.78;99776.34;4485981;31;33357;-85
2022/06/28 04:33:48;;;;;;;3.67;1.65;;;;;;;27.76;43.96;99768.00;4479590;31;34043;-85
2022/06/28 04:36:18;;;;;;;2.20;1.17;;;;;;;27.86;45.62;99770.81;4479949;31;33665;-85
2022/06/28 04:38:48;;;;;;;2.87;1.42;;;;;;;27.94;44.45;99771.00;4486574;31;32061;-85
2022/06/28 04:41:19;;;;;;;1.90;1.30;;;;;;;28.20;42.31;99794.63;4487136;31;34166;-84
2022/06/28 04:43:48;;;;;;;2.83;1.40;;;;;;;27.95;42.68;99819.81;4498498;31;33907;-85
2022/06/28 04:46:17;;;;;;;1.92;1.30;;;;;;;27.82;42.02;99831.50;4486071;31;34383;-85
2022/06/28 04:48:47;;;;;;;2.37;1.33;;;;;;;27.84;40.96;99821.56;4476511;31;32181;-86
2022/06/28 04:51:16;;;;;;;5.07;1.58;;;;;;;27.51;42.15;99851.81;4484654;31;33714;-84
2022/06/28 04:53:47;;;;;;;3.95;1.77;;;;;;;27.24;42.23;99850.41;4497875;31;34902;-85
2022/06/28 04:56:21;;;;;;;3.15;1.37;;;;;;;27.17;42.80;99851.84;4492860;31;34374;-85
2022/06/28 04:58:50;;;;;;;3.60;1.48;;;;;;;26.95;43.11;99852.69;4484024;31;33802;-85
2022/06/28 05:01:19;;;;;;;2.92;1.37;;;;;;;27.22;42.91;99849.69;4492233;31;33656;-84
2022/06/28 05:03:48;;;;;;;4.10;1.87;;;;;;;27.29;42.60;99863.37;4492789;31;33860;-85
2022/06/28 05:06:17;;;;;;;1.92;1.17;;;;;;;27.43;42.19;99857.78;4486453;31;33358;-85
2022/06/28 05:09:04;;;;;;;2.35;1.65;;;;;;;27.13;43.47;99834.41;4491575;31;33362;-85
2022/06/28 05:11:56;;;;;;;3.95;1.73;;;;;;;27.41;43.12;99854.38;4483895;31;33849;-84
2022/06/28 05:14:27;;;;;;;3.80;1.70;;;;;;;26.87;44.66;99859.59;4489868;31;33518;-84
2022/06/28 05:16:56;;;;;;;3.67;1.92;;;;;;;26.73;45.42;99864.19;4488549;31;33906;-84
2022/06/28 05:19:25;;;;;;;3.40;1.80;;;;;;;26.69;45.35;99872.53;4489886;31;32666;-84
2022/06/28 05:21:54;;;;;;;3.17;1.65;;;;;;;26.57;46.09;99876.97;4493947;31;34532;-84
2022/06/28 05:24:23;;;;;;;3.97;1.52;;;;;;;26.40;46.66;99878.22;4496788;31;34508;-86
2022/06/28 05:26:52;;;;;;;1.90;1.30;;;;;;;26.36;47.04;99880.28;4494560;31;34508;-84
2022/06/28 05:29:23;;;;;;;2.72;1.37;;;;;;;25.79;49.60;99880.16;4492347;31;32836;-83
2022/06/28 05:31:52;;;;;;;2.67;1.42;;;;;;;25.84;49.51;99859.38;4486056;31;34296;-83
2022/06/28 05:34:21;;;;;;;3.03;1.55;;;;;;;25.71;50.25;99854.97;4493496;31;33602;-83
2022/06/28 05:36:50;;;;;;;3.20;1.70;;;;;;;25.84;50.05;99854.91;4491714;31;36103;-84
2022/06/28 05:39:19;;;;;;;2.30;1.50;;;;;;;25.89;50.86;99852.78;4487213;31;33100;-84
2022/06/28 05:41:48;;;;;;;7.10;2.78;;;;;;;26.22;50.27;99877.00;4489666;31;33592;-81
2022/06/28 05:44:17;;;;;;;4.00;2.00;;;;;;;24.96;63.64;99815.25;4487409;31;33584;-82
2022/06/28 05:46:49;;;;;;;3.17;1.73;;;;;;;25.05;64.56;99803.94;4492266;31;33437;-81
2022/06/28 05:49:18;;;;;;;4.55;2.20;;;;;;;24.39;67.24;99800.59;4484443;31;33974;-81
2022/06/28 05:51:47;;;;;;;2.58;1.83;;;;;;;24.34;68.63;99757.66;4490855;31;33567;-81
2022/06/28 05:54:17;;;;;;;5.28;2.00;;;;;;;24.11;71.65;99737.16;4482633;31;34008;-80
2022/06/28 05:56:46;;;;;;;3.20;1.98;;;;;;;24.46;69.48;99732.09;4490934;31;34401;-81
2022/06/28 05:59:15;;;;;;;2.75;1.90;;;;;;;24.60;68.11;99747.91;4480391;31;33317;-81
2022/06/28 06:01:44;;;;;;;5.60;2.42;;;;;;;24.45;69.50;99754.22;4484947;31;34695;-81
2022/06/28 06:04:14;;;;;;;3.90;1.70;;;;;;;24.48;70.44;99756.72;4491013;31;34731;-81
2022/06/28 06:06:43;;;;;;;3.42;2.25;;;;;;;24.45;71.24;99755.09;4492038;31;33899;-81
2022/06/28 06:09:12;;;;;;;4.28;2.12;;;;;;;24.42;72.45;99744.69;4489702;31;33351;-82
2022/06/28 06:11:41;;;;;;;6.25;1.92;;;;;;;24.48;72.62;99731.03;4493037;31;32972;-82
2022/06/28 06:14:10;;;;;;;5.40;1.92;;;;;;;24.62;72.08;99723.91;4489408;31;33885;-82
2022/06/28 06:16:39;;;;;;;9.68;2.30;;;;;;;24.57;72.63;99716.28;4492236;31;33451;-82
2022/06/28 06:19:08;;;;;;;3.95;2.03;;;;;;;24.27;74.17;99704.19;4486809;31;33219;-82
2022/06/28 06:21:40;;;;;;;6.32;1.87;;;;;;;24.32;72.77;99680.00;4481264;31;33655;-82
2022/06/28 06:24:09;;;;;;;5.20;2.37;;;;;;;24.37;70.96;99691.13;4485442;31;33902;-82
2022/06/28 06:26:44;;;;;;;3.72;1.95;;;;;;;24.19;71.48;99693.28;4484786;31;33787;-82
2022/06/28 06:29:13;;;;;;;3.45;1.80;;;;;;;23.39;73.21;99771.97;4482983;31;33458;-82
2022/06/28 06:31:42;;;;;;;6.37;2.33;;;;;;;23.49;72.53;99780.16;4489178;31;33551;-82
2022/06/28 06:34:21;;;;;;;6.62;2.50;;;;;;;23.63;71.75;99761.53;4484693;31;34046;-83
2022/06/28 06:36:51;;;;;;;3.42;1.95;;;;;;;23.40;74.90;99752.47;4485319;31;33782;-83
2022/06/28 06:39:20;;;;;;;3.50;1.95;;;;;;;23.23;75.74;99740.31;4486668;31;32790;-83
2022/06/28 06:41:49;;;;;;;4.87;2.67;;;;;;;23.49;74.82;99698.06;4488210;31;33916;-83
2022/06/28 06:44:21;;;;;;;2.97;2.05;;;;;;;23.72;75.19;99677.97;4492052;31;35002;-83
2022/06/28 06:46:52;;;;;;;4.35;1.80;;;;;;;24.03;70.83;99705.91;4488464;31;34458;-83
2022/06/28 06:49:20;;;;;;;2.42;1.58;;;;;;;24.11;69.87;99738.00;4485443;31;32922;-83
2022/06/28 06:51:49;;;;;;;8.50;2.40;;;;;;;24.03;70.30;99756.25;4485134;31;34514;-83
2022/06/28 06:54:20;;;;;;;3.12;1.85;;;;;;;23.82;71.76;99783.25;4485396;31;33932;-84
2022/06/28 06:56:48;;;;;;;4.40;1.50;;;;;;;23.60;71.25;99794.34;4488768;31;35913;-83
2022/06/28 06:59:17;;;;;;;2.95;1.77;;;;;;;23.34;70.71;99779.31;4492701;31;34117;-84
2022/06/28 07:01:46;;;;;;;2.25;1.50;;;;;;;23.27;72.26;99789.47;4486935;31;34252;-84
2022/06/28 07:04:16;;;;;;;1.90;1.15;;;;;;;23.38;71.03;99789.63;4490067;31;33723;-83
2022/06/28 07:06:46;;;;;;;9.05;1.62;;;;;;;23.29;72.91;99773.47;4494113;31;32818;-83
2022/06/28 07:09:14;;;;;;;4.05;1.77;;;;;;;23.27;73.27;99778.91;4492879;31;31759;-83
2022/06/28 07:11:45;;;;;;;3.80;1.50;;;;;;;23.53;72.61;99763.09;4499203;31;34501;-83
2022/06/28 07:14:14;;;;;;;3.50;1.20;;;;;;;23.41;73.95;99740.91;4492380;31;33833;-83
2022/06/28 07:16:43;;;;;;;3.08;1.62;;;;;;;23.72;72.24;99747.69;4493532;31;33795;-82
2022/06/28 07:19:13;;;;;;;4.97;1.77;;;;;;;23.67;71.39;99736.53;4479333;32;33589;-81
2022/06/28 07:21:44;;;;;;;3.05;1.30;;;;;;;23.66;71.78;99737.50;4491738;31;33959;-82
2022/06/28 07:24:14;;;;;;;2.55;1.67;;;;;;;23.72;71.75;99731.78;4500926;31;34030;-82
2022/06/28 07:26:44;;;;;;;4.55;2.05;;;;;;;23.74;71.29;99719.31;4491566;31;33479;-82
2022/06/28 07:29:14;;;;;;;8.43;2.50;;;;;;;23.77;70.93;99711.16;4484844;31;35102;-82
2022/06/28 07:31:45;;;;;;;3.78;1.23;;;;;;;23.89;70.04;99708.62;4482993;31;33607;-82
2022/06/28 07:34:15;;;;;;;4.62;1.08;;;;;;;23.71;71.54;99706.25;4484812;31;35251;-82
2022/06/28 07:36:44;;;;;;;3.37;1.48;;;;;;;23.78;71.69;99715.53;4490873;31;33288;-82
2022/06/28 07:39:13;;;;;;;2.50;1.20;;;;;;;23.94;71.50;99717.13;4495131;31;33615;-82
2022/06/28 07:41:54;;;;;;;4.57;1.60;;;;;;;23.95;71.77;99726.78;4487129;31;34617;-82
2022/06/28 07:44:25;;;;;;;2.97;2.45;;;;;;;24.39;68.33;99757.31;4490243;31;33252;-82
2022/06/28 07:46:53;;;;;;;4.45;1.30;;;;;;;23.95;68.09;99748.81;4478569;31;33363;-82
2022/06/28 07:49:22;;;;;;;1.95;1.00;;;;;;;24.11;66.43;99763.66;4479659;31;32885;-81
2022/06/28 07:54:41;;;;;;;3.22;1.20;;;;;;;24.07;69.12;99789.53;4482191;31;33972;-81
2022/06/28 07:57:12;;;;;;;2.22;1.35;;;;;;;23.74;68.45;99796.13;4479869;31;32278;-80
2022/06/28 07:59:41;;;;;;;1.98;1.10;;;;;;;23.60;68.20;99790.88;4487052;31;30850;-81
2022/06/28 08:02:10;;;;;;;4.93;1.42;;;;;;;23.40;68.42;99800.12;4494316;31;33567;-81
2022/06/28 08:04:43;;;;;;;3.65;1.45;;;;;;;23.34;69.48;99788.13;4484116;31;34559;-81
2022/06/28 08:07:11;;;;;;;3.55;1.23;;;;;;;23.45;69.60;99794.53;4487143;31;33658;-81
2022/06/28 08:09:40;;;;;;;3.22;1.20;;;;;;;23.65;68.65;99783.47;4497465;31;33647;-81
2022/06/28 08:12:10;;;;;;;3.05;1.02;;;;;;;23.61;69.08;99795.22;4480345;31;34524;-81
2022/06/28 08:14:40;;;;;;;3.10;1.00;;;;;;;23.87;68.03;99790.03;4481689;31;34686;-81
2022/06/28 08:17:09;;;;;;;4.97;1.30;;;;;;;23.75;68.65;99781.97;4484351;31;33325;-81
2022/06/28 08:19:38;;;;;;;4.10;1.12;;;;;;;23.59;68.88;99774.13;4490331;31;32499;-81
2022/06/28 08:22:07;;;;;;;5.32;1.48;;;;;;;23.88;68.23;99767.91;4500441;31;33362;-81
2022/06/28 08:24:35;;;;;;;3.25;1.60;;;;;;;23.89;68.30;99770.41;4486704;31;34745;-82
2022/06/28 08:27:08;;;;;;;6.87;1.60;;;;;;;23.85;70.30;99779.56;4481320;31;33416;-83
2022/06/28 08:29:37;;;;;;;1.73;1.30;;;;;;;24.15;68.43;99768.66;4483782;31;33941;-82
2022/06/28 08:32:11;;;;;;;4.40;1.60;;;;;;;24.09;68.40;99787.66;4482350;31;35351;-81
2022/06/28 08:34:47;;;;;;;5.47;2.10;;;;;;;24.27;69.08;99791.69;4484930;31;33379;-82
2022/06/28 08:37:17;;;;;;;1.83;1.10;;;;;;;24.78;66.13;99795.31;4489968;31;33186;-82
2022/06/28 08:39:46;;;;;;;5.62;1.23;;;;;;;24.99;66.26;99803.56;4480677;31;33060;-82
2022/06/28 08:42:17;;;;;;;3.15;1.35;;;;;;;24.90;64.89;99807.69;4479428;31;33824;-82
2022/06/28 08:44:48;;;;;;;2.20;1.42;;;;;;;25.00;64.96;99807.91;4481818;31;34436;-82
2022/06/28 08:47:20;;;;;;;2.92;1.60;;;;;;;25.26;62.22;99804.25;4483601;31;33633;-83
2022/06/28 08:49:54;;;;;;;2.78;1.10;;;;;;;25.34;63.78;99811.66;4491025;31;32943;-83
2022/06/28 08:52:25;;;;;;;8.45;1.37;;;;;;;25.50;63.16;99814.88;4490216;31;32973;-83
2022/06/28 08:54:54;;;;;;;3.72;0.85;;;;;;;25.64;61.92;99818.34;4481921;31;34610;-83
2022/06/28 08:57:23;;;;;;;1.77;0.93;;;;;;;25.43;64.77;99824.28;4490300;31;34492;-84
2022/06/28 08:59:52;;;;;;;2.28;1.23;;;;;;;26.00;59.65;99821.91;4490322;31;33432;-82
2022/06/28 09:02:23;;;;;;;1.60;0.98;;;;;;;26.06;60.23;99829.41;4488489;31;32652;-83
2022/06/28 09:04:53;;;;;;;4.78;1.48;;;;;;;26.27;57.29;99826.94;4480867;31;34274;-83
2022/06/28 09:07:22;;;;;;;1.12;0.82;;;;;;;26.06;57.80;99834.75;4480643;31;33815;-83
2022/06/28 09:09:52;;;;;;;3.33;1.27;;;;;;;26.12;58.91;99836.91;4491433;31;31816;-82
2022/06/28 09:12:23;;;;;;;1.98;0.90;;;;;;;26.17;57.36;99837.44;4483481;31;32278;-83
2022/06/28 09:14:56;;;;;;;4.95;1.05;;;;;;;26.07;58.98;99839.94;4484205;31;33756;-83
2022/06/28 09:17:28;;;;;;;4.70;1.67;;;;;;;26.49;56.81;99840.28;4481709;31;34430;-83
2022/06/28 09:20:02;;;;;;;2.03;0.70;;;;;;;26.77;55.74;99838.16;4490264;31;33697;-83
2022/06/28 09:22:33;;;;;;;2.83;0.62;;;;;;;26.51;57.11;99849.00;4486319;31;34658;-82
2022/06/28 09:25:11;;;;;;;1.30;0.77;;;;;;;26.98;55.16;99846.28;4489548;31;33636;-83
2022/06/28 09:27:41;;;;;;;0.70;0.70;;;;;;;27.12;53.02;99848.69;4484589;31;33677;-83
2022/06/28 09:30:14;;;;;;;1.37;0.70;;;;;;;27.18;55.09;99852.69;4486623;31;33110;-83
2022/06/28 09:32:44;;;;;;;1.27;0.60;;;;;;;27.41;52.39;99837.56;4490377;31;33629;-84
2022/06/28 09:35:16;;;;;;;2.53;1.00;;;;;;;27.23;55.70;99848.72;4485885;31;34046;-83
2022/06/28 09:37:49;;;;;;;3.78;1.58;;;;;;;27.51;55.84;99843.81;4480277;31;34309;-83
2022/06/28 09:40:19;;;;;;;3.00;1.40;;;;;;;27.84;56.41;99842.06;4481528;31;32973;-85
2022/06/28 09:43:05;;;;;;;3.43;1.53;;;;;;;27.84;55.51;99844.72;4487411;31;31860;-85
2022/06/28 09:45:39;;;;;;;2.10;1.33;;;;;;;27.96;54.24;99848.19;4490538;31;33864;-84
2022/06/28 09:48:09;;;;;;;;;;;;;;;28.12;54.66;99843.25;4479204;31;33014;-84
2022/06/28 09:50:38;;;;;;;2.15;1.42;;;;;;;27.92;54.18;99847.59;4483526;31;32386;-84
2022/06/28 09:53:13;;;;;;;1.50;0.93;;;;;;;27.78;54.82;99853.19;4488411;31;33969;-83
2022/06/28 09:55:43;;;;;;;1.75;1.05;;;;;;;27.76;56.49;99852.47;4484230;31;34628;-84
2022/06/28 09:58:17;;;;;;;1.73;1.20;;;;;;;28.19;53.54;99847.09;4492410;31;33698;-84
2022/06/28 10:00:46;;;;;;;3.95;1.33;;;;;;;28.43;55.57;99852.19;4489954;31;33135;-84
2022/06/28 10:03:17;;;;;;;1.45;1.02;;;;;;;28.50;54.07;99841.87;4490656;31;33864;-86
2022/06/28 10:05:48;;;;;;;3.92;1.58;;;;;;;28.72;54.05;99851.53;4486076;31;34897;-85
2022/06/28 10:08:23;;;;;;;2.10;1.52;;;;;;;28.96;53.26;99853.88;4484705;31;31783;-85
2022/06/28 10:10:51;;;;;;;3.12;1.55;;;;;;;29.00;54.71;99849.97;4486593;31;33069;-84
2022/06/28 10:16:36;;;;;;;1.50;1.12;;;;;;;28.85;52.93;99851.31;4486618;31;34244;-84
2022/06/28 10:19:07;;;;;;;1.98;1.27;;;;;;;29.02;53.62;99848.03;4489808;31;33638;-85
2022/06/28 10:21:46;;;;;;;2.80;1.37;;;;;;;29.02;51.97;99842.69;4484173;31;33333;-85
2022/06/28 10:24:18;;;;;;;2.55;1.37;;;;;;;29.13;52.26;99847.94;4486992;31;32291;-85
2022/06/28 10:27:07;;;;;;;7.70;1.70;;;;;;;29.24;51.93;99841.66;4483901;31;32728;-85
2022/06/28 10:30:12;;;;;;;3.03;1.23;;;;;;;29.56;51.78;99843.28;4497695;31;33874;-85
2022/06/28 10:32:42;;;;;;;7.28;1.60;;;;;;;29.70;49.93;99836.72;4494909;31;34206;-85
2022/06/28 10:36:03;;;;;;;4.43;1.67;;;;;;;29.74;48.93;99833.63;4488927;31;33669;-86
2022/06/28 10:38:32;;;;;;;2.50;1.35;;;;;;;29.76;49.35;99842.31;4487615;31;34148;-85
2022/06/28 10:41:15;;;;;;;3.72;1.40;;;;;;;29.70;50.27;99837.56;4481833;31;33750;-85
2022/06/28 10:43:47;;;;;;;2.35;1.27;;;;;;;29.94;50.67;99834.47;4479364;31;31464;-85
2022/06/28 10:46:26;;;;;;;2.10;1.50;;;;;;;30.44;48.85;99832.59;4481001;31;33866;-85
2022/06/28 10:49:06;;;;;;;3.75;1.42;;;;;;;30.61;48.83;99834.50;4486379;31;34464;-84
2022/06/28 10:51:42;;;;;;;2.85;1.15;;;;;;;30.71;49.12;99826.44;4485652;31;33775;-86
2022/06/28 10:54:12;;;;;;;2.92;1.30;;;;;;;30.95;45.16;99825.94;4485080;31;33286;-85
2022/06/28 10:56:42;;;;;;;;;;;;;;;30.70;44.98;99822.91;4484810;31;34605;-85
2022/06/28 10:59:16;;;;;;;2.58;1.73;;;;;;;31.23;45.59;99824.97;4485765;31;34995;-85
2022/06/28 11:01:57;;;;;;;3.15;1.45;;;;;;;31.34;43.98;99823.94;4483302;31;33706;-85
2022/06/28 11:04:31;;;;;;;2.08;1.20;;;;;;;31.21;44.61;99816.22;4487449;31;33327;-85
2022/06/28 11:07:23;;;;;;;3.83;1.20;;;;;;;31.38;44.03;99824.44;4491069;31;33083;-85
2022/06/28 11:10:11;;;;;;;3.33;1.55;;;;;;;31.59;42.29;99830.41;4490320;31;33594;-85
2022/06/28 11:12:42;;;;;;;1.85;1.00;;;;;;;31.61;42.06;99820.38;4486507;31;33984;-84
2022/06/28 11:15:12;;;;;;;3.05;1.30;;;;;;;31.59;43.59;99819.69;4484777;31;34153;-85
2022/06/28 11:17:42;;;;;;;2.05;1.12;;;;;;;31.76;42.19;99815.31;4480645;31;33365;-85
2022/06/28 11:20:12;;;;;;;1.65;1.10;;;;;;;31.34;40.97;99815.88;4484313;31;34083;-84
2022/06/28 11:22:47;;;;;;;1.35;1.00;;;;;;;31.87;39.62;99820.44;4478248;31;32871;-85
2022/06/28 11:25:18;;;;;;;2.65;1.37;;;;;;;31.82;41.46;99817.41;4491466;31;31464;-85
2022/06/28 11:27:48;;;;;;;2.33;1.23;;;;;;;31.91;41.49;99817.44;4484288;31;33620;-85
2022/06/28 11:30:17;;;;;;;2.87;1.52;;;;;;;32.06;42.81;99807.88;4478308;31;33256;-84
2022/06/28 11:32:50;;;;;;;2.10;1.30;;;;;;;32.08;41.04;99806.72;4482664;31;33062;-84
2022/06/28 11:35:24;;;;;;;2.85;1.20;;;;;;;32.18;40.02;99811.16;4487403;31;32255;-84
2022/06/28 11:37:58;;;;;;;2.08;1.30;;;;;;;32.33;40.76;99811.41;4487620;31;33654;-85
2022/06/28 11:40:28;;;;;;;4.55;1.52;;;;;;;32.37;41.06;99802.06;4487497;31;34057;-86
2022/06/28 11:43:01;;;;;;;2.62;1.30;;;;;;;32.39;42.24;99803.59;4481657;31;32961;-85
2022/06/28 11:45:31;;;;;;;2.53;1.50;;;;;;;32.80;39.32;99797.63;4481260;31;32982;-86
2022/06/28 11:48:03;;;;;;;3.12;1.10;;;;;;;32.99;40.49;99797.38;4481146;31;33470;-85
2022/06/28 11:50:40;;;;;;;5.62;1.95;;;;;;;33.23;39.39;99796.63;4483834;31;34693;-85
2022/06/28 11:53:10;;;;;;;3.60;1.67;;;;;;;32.85;41.04;99797.97;4487618;31;33439;-85
2022/06/28 11:55:41;;;;;;;2.50;1.50;;;;;;;33.32;40.05;99789.41;4488195;31;33503;-85
2022/06/28 11:58:12;;;;;;;2.80;1.73;;;;;;;33.38;39.22;99786.06;4480308;31;33958;-85
2022/06/28 12:00:41;;;;;;;1.90;1.42;;;;;;;33.43;39.92;99785.59;4478064;31;32247;-86
2022/06/28 12:03:15;;;;;;;3.05;1.58;;;;;;;33.63;39.98;99775.38;4480827;31;32883;-85
2022/06/28 12:05:44;;;;;;;3.80;1.73;;;;;;;33.88;38.07;99773.53;4487861;31;32182;-85